Paul, Nebraska
Current Conditions -  °F | °C
As of 1:15 AM on Friday 31 Oct 2014 (Local Time) from KAFK Reporting Station
Overcast Overcast  
Wind Chill: 34°   Ceiling: 2200
Heat Index: 42°   Visibility: 10mi
Dew Point: 30°   Wind: 14mph
Humidity: 63%   Direction: 360°N
Pressure: 30.37"   Gusts: 24mph
Location:  40.6534°N, 95.8738°W
Report Text: KAFK 310615Z AUTO 36012G21KT 10SM OVC022 05/M01 A3037 RMK AO2 T00531013
Loading
Personal Weather Stations






























Interactive Weather Map
Tropical Storm Tracking
New forecast layout! Learn more

10-Day Weather Forecast

Advertisements
Track Severe Weather on mobile